createdAt,value
2022-09-03T00:01:20.511Z,3.70
2022-09-03T00:03:56.936Z,3.60
2022-09-03T00:06:34.255Z,3.70
2022-09-03T00:09:13.227Z,3.80
2022-09-03T00:11:52.069Z,3.60
2022-09-03T00:14:28.127Z,3.30
2022-09-03T00:17:04.499Z,3.20
2022-09-03T00:19:42.086Z,3.40
2022-09-03T00:22:19.010Z,3.80
2022-09-03T00:24:51.566Z,3.20
2022-09-03T00:27:28.278Z,3.20
2022-09-03T00:30:04.540Z,4.20
2022-09-03T00:32:47.280Z,4.00
2022-09-03T00:35:24.904Z,3.70
2022-09-03T00:37:57.259Z,3.80
2022-09-03T00:40:50.735Z,3.10
2022-09-03T00:43:32.771Z,3.80
2022-09-03T00:46:18.743Z,3.40
2022-09-03T00:49:09.523Z,3.30
2022-09-03T00:51:51.962Z,3.20
2022-09-03T00:54:35.186Z,3.30
2022-09-03T00:57:25.963Z,3.10
2022-09-03T01:00:05.036Z,3.50
2022-09-03T01:02:49.366Z,3.30
2022-09-03T01:05:35.879Z,3.40
2022-09-03T01:08:22.418Z,3.90
2022-09-03T01:10:59.062Z,3.00
2022-09-03T01:13:35.107Z,3.40
2022-09-03T01:16:17.398Z,3.40
2022-09-03T01:18:56.666Z,3.90
2022-09-03T01:21:46.861Z,3.10
2022-09-03T01:24:43.693Z,4.70
2022-09-03T01:27:31.608Z,3.10
2022-09-03T01:30:07.121Z,3.10
2022-09-03T01:32:47.081Z,3.20
2022-09-03T01:35:28.202Z,3.40
2022-09-03T01:38:12.116Z,3.50
2022-09-03T01:40:50.257Z,3.80
2022-09-03T01:43:43.308Z,3.30
2022-09-03T01:46:24.960Z,3.60
2022-09-03T01:49:06.844Z,3.30
2022-09-03T01:51:37.715Z,3.60
2022-09-03T01:54:35.562Z,3.30
2022-09-03T01:57:35.808Z,3.60
2022-09-03T02:00:13.631Z,3.20
2022-09-03T02:02:48.208Z,2.90
2022-09-03T02:05:23.028Z,3.20
2022-09-03T02:08:00.588Z,3.50
2022-09-03T02:10:39.600Z,3.20
2022-09-03T02:13:15.018Z,3.90
2022-09-03T02:15:49.688Z,3.50
2022-09-03T02:18:25.741Z,3.70
2022-09-03T02:20:57.444Z,3.70
2022-09-03T02:23:29.904Z,3.20
2022-09-03T02:26:03.184Z,3.50
2022-09-03T02:28:35.334Z,3.50
2022-09-03T02:31:06.782Z,6.20
2022-09-03T02:33:40.575Z,3.60
2022-09-03T02:36:14.752Z,3.40
2022-09-03T02:38:46.576Z,3.80
2022-09-03T02:41:17.989Z,3.60
2022-09-03T02:43:56.080Z,3.40
2022-09-03T02:46:31.238Z,3.50
2022-09-03T02:51:36.740Z,4.00
2022-09-03T02:54:09.498Z,3.30
2022-09-03T02:56:40.463Z,4.10
2022-09-03T02:59:12.121Z,3.70
2022-09-03T03:01:43.073Z,3.70
2022-09-03T03:04:17.702Z,3.50
2022-09-03T03:06:50.816Z,4.00
2022-09-03T03:09:21.815Z,3.60
2022-09-03T03:11:55.513Z,3.80
2022-09-03T03:14:26.548Z,4.20
2022-09-03T03:16:57.577Z,3.20
2022-09-03T03:19:28.588Z,3.40
2022-09-03T03:22:00.894Z,3.60
2022-09-03T03:24:32.351Z,3.40
2022-09-03T03:27:05.995Z,3.90
2022-09-03T03:29:36.924Z,3.40
2022-09-03T03:32:08.084Z,3.50
2022-09-03T03:34:40.053Z,3.40
2022-09-03T03:37:11.024Z,3.70
2022-09-03T03:39:42.022Z,3.60
2022-09-03T03:42:14.352Z,3.30
2022-09-03T03:44:45.395Z,3.50
2022-09-03T03:47:17.191Z,5.00
2022-09-03T03:49:48.379Z,4.50
2022-09-03T03:52:19.397Z,4.10
2022-09-03T03:54:50.583Z,4.90
2022-09-03T03:57:23.207Z,3.70
2022-09-03T03:59:54.078Z,3.80
2022-09-03T04:02:25.108Z,3.70
2022-09-03T04:04:55.996Z,4.30
2022-09-03T04:07:27.166Z,4.30
2022-09-03T04:09:58.106Z,3.80
2022-09-03T04:12:29.582Z,3.80
2022-09-03T04:15:00.523Z,5.90
2022-09-03T04:17:31.989Z,5.40
2022-09-03T04:20:03.057Z,5.00
2022-09-03T04:22:34.158Z,4.10
2022-09-03T04:25:05.549Z,3.70
2022-09-03T04:27:36.464Z,4.00
2022-09-03T04:30:09.262Z,3.40
2022-09-03T04:32:56.248Z,3.70
2022-09-03T04:35:31.809Z,3.30
2022-09-03T04:38:04.378Z,3.50
2022-09-03T04:40:35.399Z,3.90
2022-09-03T04:43:06.732Z,4.10
2022-09-03T04:45:37.792Z,7.80
2022-09-03T04:48:11.933Z,4.20
2022-09-03T04:50:42.828Z,3.70
2022-09-03T04:53:13.832Z,3.40
2022-09-03T04:55:44.741Z,3.80
2022-09-03T04:58:16.201Z,3.60
2022-09-03T05:00:47.278Z,3.70
2022-09-03T05:03:18.272Z,3.40
2022-09-03T05:05:56.851Z,3.50
2022-09-03T05:08:28.466Z,3.30
2022-09-03T05:11:02.663Z,3.50
2022-09-03T05:13:34.047Z,3.50
2022-09-03T05:16:07.540Z,3.40
2022-09-03T05:18:38.748Z,3.30
2022-09-03T05:21:11.519Z,3.50
2022-09-03T05:23:43.947Z,3.50
2022-09-03T05:26:16.495Z,3.50
2022-09-03T05:28:48.470Z,3.70
2022-09-03T05:31:21.320Z,3.50
2022-09-03T05:33:54.554Z,2.70
2022-09-03T05:36:27.191Z,3.50
2022-09-03T05:38:59.113Z,3.60
2022-09-03T05:41:33.630Z,3.40
2022-09-03T05:44:06.214Z,3.30
2022-09-03T05:46:38.080Z,3.40
2022-09-03T05:49:11.727Z,3.00
2022-09-03T05:51:42.677Z,3.80
2022-09-03T05:54:13.705Z,3.30
2022-09-03T05:56:44.642Z,3.40
2022-09-03T05:59:15.573Z,3.20
2022-09-03T06:01:50.925Z,3.20
2022-09-03T06:04:23.929Z,3.80
2022-09-03T06:06:54.950Z,3.70
2022-09-03T06:09:25.849Z,3.30
2022-09-03T06:11:57.173Z,3.40
2022-09-03T06:14:28.476Z,3.40
2022-09-03T06:16:59.500Z,3.60
2022-09-03T06:19:30.480Z,3.30
2022-09-03T06:22:01.404Z,3.00
2022-09-03T06:24:32.387Z,2.80
2022-09-03T06:27:04.012Z,4.00
2022-09-03T06:29:35.744Z,3.10
2022-09-03T06:32:07.145Z,3.00
2022-09-03T06:34:38.191Z,3.70
2022-09-03T06:37:09.171Z,3.40
2022-09-03T06:39:40.269Z,3.00
2022-09-03T06:42:11.668Z,3.00
2022-09-03T06:44:46.437Z,3.20
2022-09-03T06:47:17.715Z,4.10
2022-09-03T06:49:48.719Z,3.90
2022-09-03T06:52:19.649Z,4.90
2022-09-03T06:54:50.705Z,3.20
2022-09-03T06:57:23.764Z,3.40
2022-09-03T06:59:54.794Z,3.00
2022-09-03T07:02:25.921Z,3.60
2022-09-03T07:04:57.251Z,3.50
2022-09-03T07:07:28.302Z,3.50
2022-09-03T07:09:59.264Z,3.10
2022-09-03T07:12:30.396Z,3.30
2022-09-03T07:15:01.362Z,3.30
2022-09-03T07:17:32.324Z,2.70
2022-09-03T07:20:03.533Z,3.60
2022-09-03T07:22:34.769Z,3.50
2022-09-03T07:25:07.175Z,3.30
2022-09-03T07:27:38.771Z,3.40
2022-09-03T07:30:12.576Z,3.40
2022-09-03T07:35:13.100Z,3.70
2022-09-03T07:37:45.371Z,3.50
2022-09-03T07:40:19.239Z,3.20
2022-09-03T07:45:26.909Z,3.20
2022-09-03T07:47:58.935Z,3.30
2022-09-03T07:50:34.165Z,3.30
2022-09-03T07:53:05.117Z,3.20
2022-09-03T07:55:36.689Z,2.80
2022-09-03T07:58:07.889Z,2.70
2022-09-03T08:00:39.239Z,2.60
2022-09-03T08:03:10.828Z,3.20
2022-09-03T08:05:41.775Z,2.40
2022-09-03T08:08:15.593Z,2.70
2022-09-03T08:10:47.843Z,2.70
2022-09-03T08:13:19.412Z,2.30
2022-09-03T08:16:00.242Z,2.30
2022-09-03T08:18:32.120Z,2.80
2022-09-03T08:21:03.835Z,2.70
2022-09-03T08:23:34.847Z,2.20
2022-09-03T08:26:06.408Z,2.10
2022-09-03T08:28:38.085Z,2.30
2022-09-03T08:31:11.564Z,2.10
2022-09-03T08:33:43.822Z,2.60
2022-09-03T08:36:17.015Z,2.20
2022-09-03T08:38:48.724Z,2.80
2022-09-03T08:41:22.781Z,2.20
2022-09-03T08:44:08.889Z,1.90
2022-09-03T08:46:49.005Z,2.30
2022-09-03T08:49:24.276Z,2.20
2022-09-03T08:52:00.315Z,2.30
2022-09-03T08:54:33.725Z,2.10
2022-09-03T08:57:07.204Z,2.20
2022-09-03T08:59:38.465Z,2.10
2022-09-03T09:02:22.466Z,2.70
2022-09-03T09:05:06.062Z,2.30
2022-09-03T09:07:48.140Z,2.20
2022-09-03T09:10:28.418Z,2.20
2022-09-03T09:13:13.479Z,1.80
2022-09-03T09:15:56.341Z,2.20
2022-09-03T09:18:39.277Z,2.10
2022-09-03T09:21:21.458Z,2.50
2022-09-03T09:23:55.825Z,2.20
2022-09-03T09:26:27.173Z,2.10
2022-09-03T09:29:05.671Z,1.90
2022-09-03T09:31:44.757Z,1.70
2022-09-03T09:34:15.624Z,1.80
2022-09-03T09:36:52.167Z,2.10
2022-09-03T09:39:24.304Z,3.70
2022-09-03T09:42:08.377Z,2.30
2022-09-03T09:44:40.107Z,1.80
2022-09-03T09:47:14.747Z,2.10
2022-09-03T09:52:26.151Z,2.00
2022-09-03T09:55:09.923Z,2.10
2022-09-03T09:57:40.844Z,1.80
2022-09-03T10:00:15.935Z,2.00
2022-09-03T10:02:52.259Z,1.80
2022-09-03T10:05:28.020Z,1.80
2022-09-03T10:08:00.871Z,1.60
2022-09-03T10:10:35.551Z,1.70
2022-09-03T10:13:12.711Z,1.90
2022-09-03T10:15:51.350Z,1.70
2022-09-03T10:18:32.481Z,2.00
2022-09-03T10:21:07.951Z,1.80
2022-09-03T10:23:57.803Z,1.80
2022-09-03T10:26:32.497Z,1.50
2022-09-03T10:31:57.074Z,1.80
2022-09-03T10:34:37.361Z,2.30
2022-09-03T10:37:18.551Z,2.10
2022-09-03T10:40:06.550Z,2.20
2022-09-03T10:42:47.979Z,1.90
2022-09-03T10:45:39.396Z,2.10
2022-09-03T10:48:27.322Z,2.20
2022-09-03T10:51:04.280Z,2.00
2022-09-03T10:53:51.145Z,2.60
2022-09-03T10:56:33.979Z,2.70
2022-09-03T10:59:17.046Z,2.20
2022-09-03T11:01:56.534Z,2.20
2022-09-03T11:04:38.148Z,2.10
2022-09-03T11:07:13.816Z,2.10
2022-09-03T11:09:53.742Z,1.80
2022-09-03T11:12:30.913Z,1.60
2022-09-03T11:15:06.016Z,2.10
2022-09-03T11:17:41.437Z,1.90
2022-09-03T11:20:18.060Z,2.30
2022-09-03T11:22:51.051Z,2.00
2022-09-03T11:25:26.204Z,1.70
2022-09-03T11:30:41.929Z,2.10
2022-09-03T11:33:15.068Z,1.40
2022-09-03T11:35:46.371Z,2.90
2022-09-03T11:38:31.162Z,1.90
2022-09-03T11:41:05.901Z,1.50
2022-09-03T11:43:36.987Z,1.40
2022-09-03T11:46:13.344Z,1.40
2022-09-03T11:48:46.496Z,1.50
2022-09-03T11:51:35.767Z,1.60
2022-09-03T11:54:09.654Z,3.70
2022-09-03T11:56:41.304Z,1.60
2022-09-03T11:59:25.118Z,1.50
2022-09-03T12:02:02.109Z,1.40
2022-09-03T12:04:44.027Z,1.30
2022-09-03T12:07:45.019Z,1.40
2022-09-03T12:10:28.787Z,1.40
2022-09-03T12:13:13.658Z,1.20
2022-09-03T12:16:08.584Z,2.00
2022-09-03T12:18:41.897Z,1.30
2022-09-03T12:21:14.685Z,2.00
2022-09-03T12:23:49.328Z,1.60
2022-09-03T12:26:23.906Z,1.50
2022-09-03T12:28:56.620Z,1.30
2022-09-03T12:31:30.165Z,1.50
2022-09-03T12:34:04.295Z,1.30
2022-09-03T12:36:41.871Z,1.40
2022-09-03T12:39:15.043Z,1.20
2022-09-03T12:42:01.421Z,1.40
2022-09-03T12:44:34.465Z,1.40
2022-09-03T12:50:07.126Z,1.20
2022-09-03T12:52:41.248Z,1.10
2022-09-03T12:55:28.181Z,1.20
2022-09-03T12:58:11.405Z,1.80
2022-09-03T13:00:49.595Z,1.70
2022-09-03T13:03:25.873Z,1.30
2022-09-03T13:06:03.924Z,1.50
2022-09-03T13:08:41.135Z,1.30
2022-09-03T13:11:16.701Z,1.70
2022-09-03T13:13:58.465Z,1.50
2022-09-03T13:17:05.484Z,6.90
2022-09-03T13:19:52.206Z,8.10
2022-09-03T13:22:34.827Z,1.70
2022-09-03T13:25:20.659Z,1.70
2022-09-03T13:28:09.346Z,2.10
2022-09-03T13:30:51.430Z,1.70
2022-09-03T13:33:29.267Z,1.50
2022-09-03T13:36:11.341Z,1.50
2022-09-03T13:38:50.177Z,1.50
2022-09-03T13:41:36.792Z,1.40
2022-09-03T13:44:13.075Z,1.40
2022-09-03T13:46:53.432Z,1.60
2022-09-03T13:49:53.508Z,1.40
2022-09-03T13:52:32.477Z,1.40
2022-09-03T13:55:10.785Z,1.90
2022-09-03T13:57:50.533Z,1.30
2022-09-03T14:00:31.485Z,1.50
2022-09-03T14:03:14.748Z,1.20
2022-09-03T14:06:03.757Z,1.30
2022-09-03T14:08:54.285Z,1.30
2022-09-03T14:11:33.712Z,1.40
2022-09-03T14:14:21.812Z,1.50
2022-09-03T14:17:01.162Z,1.40
2022-09-03T14:19:41.560Z,1.50
2022-09-03T14:22:20.624Z,1.10
2022-09-03T14:24:56.827Z,1.50
2022-09-03T14:27:30.055Z,1.60
2022-09-03T14:30:06.632Z,1.50
2022-09-03T14:32:51.451Z,1.30
2022-09-03T14:35:48.542Z,1.40
2022-09-03T14:38:48.037Z,1.50
2022-09-03T14:41:37.528Z,1.40
2022-09-03T14:44:25.420Z,1.10
2022-09-03T14:47:12.269Z,1.50
2022-09-03T14:50:10.136Z,1.40
2022-09-03T14:53:09.379Z,1.10
2022-09-03T14:56:07.018Z,1.40
2022-09-03T14:58:51.531Z,1.30
2022-09-03T15:01:35.695Z,1.60
2022-09-03T15:04:46.849Z,1.20
2022-09-03T15:07:32.156Z,1.60
2022-09-03T15:12:40.093Z,1.20
2022-09-03T15:15:19.586Z,1.30
2022-09-03T15:18:03.432Z,1.30
2022-09-03T15:20:45.617Z,1.30
2022-09-03T15:23:42.028Z,1.40
2022-09-03T15:26:54.497Z,1.70
2022-09-03T15:29:49.834Z,1.40
2022-09-03T15:32:33.357Z,1.50
2022-09-03T15:35:09.998Z,1.50
2022-09-03T15:37:48.461Z,1.30
2022-09-03T15:40:29.927Z,1.30
2022-09-03T15:43:09.178Z,1.50
2022-09-03T15:45:57.426Z,1.60
2022-09-03T15:48:36.088Z,1.60
2022-09-03T15:51:17.504Z,2.00
2022-09-03T15:53:56.371Z,1.40
2022-09-03T15:56:37.070Z,1.00
2022-09-03T15:59:17.656Z,1.30
2022-09-03T16:01:54.939Z,1.10
2022-09-03T16:04:54.353Z,1.50
2022-09-03T16:07:34.446Z,1.40
2022-09-03T16:10:30.272Z,1.30
2022-09-03T16:13:11.225Z,1.90
2022-09-03T16:15:49.480Z,1.50
2022-09-03T16:18:30.341Z,1.60
2022-09-03T16:21:05.317Z,1.50
2022-09-03T16:26:16.200Z,1.30
2022-09-03T16:28:53.931Z,1.70
2022-09-03T16:31:36.464Z,1.30
2022-09-03T16:34:18.979Z,1.50
2022-09-03T16:36:57.585Z,1.80
2022-09-03T16:39:40.664Z,1.60
2022-09-03T16:42:19.619Z,1.80
2022-09-03T16:45:05.688Z,1.70
2022-09-03T16:47:48.860Z,1.40
2022-09-03T16:50:35.719Z,1.80
2022-09-03T16:53:15.718Z,1.90
2022-09-03T16:56:04.465Z,2.00
2022-09-03T16:58:47.658Z,1.50
2022-09-03T17:01:35.059Z,1.70
2022-09-03T17:04:26.184Z,1.70
2022-09-03T17:07:14.616Z,2.30
2022-09-03T17:10:02.409Z,2.20
2022-09-03T17:12:39.983Z,2.00
2022-09-03T17:15:32.170Z,2.40
2022-09-03T17:18:27.868Z,2.30
2022-09-03T17:21:19.390Z,2.10
2022-09-03T17:24:08.445Z,2.00
2022-09-03T17:26:53.537Z,2.00
2022-09-03T17:29:41.810Z,2.50
2022-09-03T17:32:28.869Z,2.20
2022-09-03T17:35:20.996Z,2.30
2022-09-03T17:38:16.058Z,2.50
2022-09-03T17:45:11.617Z,2.40
2022-09-03T17:48:06.272Z,2.90
2022-09-03T17:50:53.836Z,2.60
2022-09-03T17:53:33.317Z,2.90
2022-09-03T17:56:08.381Z,2.40
2022-09-03T17:58:46.015Z,2.70
2022-09-03T18:01:25.311Z,2.40
2022-09-03T18:04:02.175Z,2.40
2022-09-03T18:06:44.349Z,3.30
2022-09-03T18:09:53.390Z,2.60
2022-09-03T18:12:36.489Z,3.40
2022-09-03T18:15:30.869Z,3.30
2022-09-03T18:18:06.743Z,3.40
2022-09-03T18:21:23.963Z,3.00
2022-09-03T18:24:29.778Z,3.30
2022-09-03T18:27:22.643Z,2.80
2022-09-03T18:30:40.318Z,3.30
2022-09-03T18:33:30.266Z,3.60
2022-09-03T18:36:28.521Z,3.40
2022-09-03T18:39:52.316Z,3.50
2022-09-03T18:42:50.657Z,3.40
2022-09-03T18:46:34.181Z,3.50
2022-09-03T18:49:08.680Z,3.50
2022-09-03T18:52:12.085Z,3.30
2022-09-03T18:55:15.670Z,3.90
2022-09-03T19:02:01.340Z,3.50
2022-09-03T19:05:04.888Z,3.60
2022-09-03T19:08:14.258Z,4.50
2022-09-03T19:11:27.176Z,3.90
2022-09-03T19:14:25.063Z,2.90
2022-09-03T19:17:36.181Z,3.80
2022-09-03T19:21:09.020Z,3.50
2022-09-03T19:23:59.536Z,3.60
2022-09-03T19:34:23.329Z,4.40
2022-09-03T19:37:23.366Z,3.70
2022-09-03T19:40:30.425Z,3.60
2022-09-03T19:43:36.974Z,3.70
2022-09-03T19:46:45.883Z,3.30
2022-09-03T19:53:22.053Z,3.00
2022-09-03T19:56:14.178Z,3.00
2022-09-03T19:59:10.662Z,3.60
2022-09-03T20:02:00.747Z,3.40
2022-09-03T20:05:16.874Z,3.50
2022-09-03T20:08:09.602Z,3.70
2022-09-03T20:10:42.996Z,3.50
2022-09-03T20:13:18.782Z,3.70
2022-09-03T20:16:02.146Z,4.10
2022-09-03T20:18:45.644Z,3.70
2022-09-03T20:21:25.158Z,3.40
2022-09-03T20:24:01.958Z,3.80
2022-09-03T20:26:52.997Z,3.50
2022-09-03T20:29:57.819Z,3.30
2022-09-03T20:32:54.198Z,3.00
2022-09-03T20:35:35.739Z,3.70
2022-09-03T20:38:30.927Z,3.30
2022-09-03T20:41:15.225Z,3.00
2022-09-03T20:44:10.626Z,3.30
2022-09-03T20:47:00.296Z,3.00
2022-09-03T20:49:42.776Z,3.30
2022-09-03T20:52:21.185Z,3.70
2022-09-03T20:55:07.173Z,3.90
2022-09-03T20:58:08.068Z,3.70
2022-09-03T21:00:51.136Z,3.80
2022-09-03T21:03:50.227Z,4.10
2022-09-03T21:06:34.612Z,4.50
2022-09-03T21:09:26.983Z,3.80
2022-09-03T21:12:09.857Z,3.60
2022-09-03T21:14:48.535Z,3.90
2022-09-03T21:17:38.953Z,3.60
2022-09-03T21:20:21.547Z,3.30
2022-09-03T21:23:06.535Z,3.50
2022-09-03T21:25:41.170Z,3.80
2022-09-03T21:28:19.264Z,4.40
2022-09-03T21:30:57.615Z,4.00
2022-09-03T21:33:34.501Z,4.30
2022-09-03T21:36:15.698Z,4.30
2022-09-03T21:39:15.810Z,3.90
2022-09-03T21:41:54.777Z,5.80
2022-09-03T21:44:47.898Z,4.00
2022-09-03T21:47:21.472Z,3.70
2022-09-03T21:50:04.099Z,5.10
2022-09-03T21:52:50.496Z,4.80
2022-09-03T21:55:31.756Z,5.20
2022-09-03T21:58:20.430Z,5.00
2022-09-03T22:00:57.722Z,4.90
2022-09-03T22:03:28.921Z,5.10
2022-09-03T22:06:07.811Z,5.60
2022-09-03T22:08:49.425Z,5.70
2022-09-03T22:11:29.688Z,5.30
2022-09-03T22:14:10.822Z,5.50
2022-09-03T22:16:47.567Z,6.30
2022-09-03T22:19:19.247Z,6.30
2022-09-03T22:21:59.669Z,6.70
2022-09-03T22:24:41.592Z,6.50
2022-09-03T22:27:26.053Z,6.40
2022-09-03T22:30:07.445Z,6.30
2022-09-03T22:32:59.337Z,7.40
2022-09-03T22:35:48.744Z,6.90
2022-09-03T22:38:37.632Z,7.50
2022-09-03T22:41:26.048Z,7.80
2022-09-03T22:44:11.481Z,7.30
2022-09-03T22:46:50.461Z,8.30
2022-09-03T22:49:38.198Z,8.40
2022-09-03T22:52:30.475Z,9.10
2022-09-03T22:55:18.638Z,7.20
2022-09-03T22:57:57.346Z,8.00
2022-09-03T23:00:30.737Z,8.50
2022-09-03T23:03:09.028Z,8.20
2022-09-03T23:05:45.999Z,8.20
2022-09-03T23:08:25.536Z,8.70
2022-09-03T23:11:03.901Z,8.60
2022-09-03T23:13:42.243Z,8.90
2022-09-03T23:16:20.740Z,8.70
2022-09-03T23:18:53.402Z,8.50
2022-09-03T23:21:31.553Z,8.50
2022-09-03T23:24:07.289Z,9.00
2022-09-03T23:26:42.945Z,8.40
2022-09-03T23:29:20.679Z,9.00
2022-09-03T23:31:54.057Z,8.90
2022-09-03T23:34:25.923Z,9.10
2022-09-03T23:40:28.122Z,9.20
2022-09-03T23:43:17.367Z,8.90
2022-09-03T23:46:03.983Z,8.50
2022-09-03T23:48:45.264Z,8.60
2022-09-03T23:51:28.183Z,9.10
2022-09-03T23:54:10.311Z,8.90
2022-09-03T23:56:58.318Z,8.60
2022-09-03T23:59:42.066Z,10.10
